Time;durP1;ratioP1;P1;durP2;ratioP2;P2;SDS_P1;SDS_P2;PMS_P1;PMS_P2;Temp;Humidity;BMP_temperature;BMP_pressure;BME280_temperature;BME280_humidity;BME280_pressure;Samples;Min_cycle;Max_cycle;Signal;HPM_P1;HPM_P2
2023/05/26 00:00:39;;;;;;;42.80;7.88;;;;;;;11.79;100.00;101926.31;4935170;29;20079;-70
2023/05/26 00:03:07;;;;;;;26.85;6.43;;;;;;;11.84;100.00;101923.22;4935044;29;20551;-69
2023/05/26 00:05:40;;;;;;;31.85;6.97;;;;;;;11.76;100.00;101933.78;4935210;29;20448;-69
2023/05/26 00:08:08;;;;;;;27.50;6.95;;;;;;;11.77;100.00;101930.13;4934666;29;20130;-70
2023/05/26 00:10:35;;;;;;;28.67;6.25;;;;;;;11.69;100.00;101926.31;4934939;29;20464;-71
2023/05/26 00:13:01;;;;;;;32.63;7.30;;;;;;;11.69;100.00;101931.69;4935427;29;20136;-69
2023/05/26 00:15:28;;;;;;;34.85;6.88;;;;;;;11.66;100.00;101921.22;4934738;29;20074;-69
2023/05/26 00:17:57;;;;;;;26.55;6.80;;;;;;;11.62;100.00;101924.25;4934703;29;20051;-69
2023/05/26 00:20:27;;;;;;;33.83;6.50;;;;;;;11.62;100.00;101929.63;4934624;29;20142;-70
2023/05/26 00:22:54;;;;;;;24.92;6.25;;;;;;;11.57;100.00;101923.81;4934510;29;20052;-69
2023/05/26 00:25:22;;;;;;;24.63;6.72;;;;;;;11.54;100.00;101921.41;4934691;29;20496;-69
2023/05/26 00:27:49;;;;;;;31.55;7.57;;;;;;;11.49;100.00;101929.06;4934400;29;20564;-69
2023/05/26 00:30:16;;;;;;;33.65;6.60;;;;;;;11.52;100.00;101924.25;4948531;28;20151;-70
2023/05/26 00:32:43;;;;;;;27.95;6.35;;;;;;;11.42;100.00;101918.00;4973202;28;20097;-69
2023/05/26 00:35:09;;;;;;;39.30;6.68;;;;;;;11.42;100.00;101928.75;4972578;28;20057;-69
2023/05/26 00:37:36;;;;;;;30.13;6.78;;;;;;;11.38;100.00;101919.25;4972935;28;20122;-69
2023/05/26 00:40:03;;;;;;;26.63;7.03;;;;;;;11.34;100.00;101921.34;4973229;28;20491;-70
2023/05/26 00:42:30;;;;;;;26.38;6.75;;;;;;;11.37;100.00;101923.75;4972751;28;20054;-70
2023/05/26 00:44:56;;;;;;;26.60;6.32;;;;;;;11.37;100.00;101926.44;4972041;28;20043;-70
2023/05/26 00:47:23;;;;;;;28.27;6.45;;;;;;;11.31;100.00;101920.75;4972501;28;20454;-69
2023/05/26 00:49:50;;;;;;;30.15;6.97;;;;;;;11.29;100.00;101922.75;4972420;28;20051;-69
2023/05/26 00:52:17;;;;;;;34.28;6.88;;;;;;;11.27;100.00;101930.94;4972359;28;20042;-70
2023/05/26 00:54:44;;;;;;;30.75;6.15;;;;;;;11.23;100.00;101924.97;4972118;28;20054;-69
2023/05/26 00:57:11;;;;;;;33.00;6.47;;;;;;;11.21;100.00;101931.50;4972126;28;20047;-69
2023/05/26 00:59:38;;;;;;;30.88;7.30;;;;;;;11.19;100.00;101933.44;4972263;28;20066;-70
2023/05/26 01:02:05;;;;;;;28.40;6.70;;;;;;;11.15;100.00;101942.75;4972367;28;20472;-70
2023/05/26 01:04:31;;;;;;;29.45;6.60;;;;;;;11.10;100.00;101934.25;4972633;28;20105;-69
2023/05/26 01:07:23;;;;;;;31.50;7.40;;;;;;;11.08;100.00;101923.66;4972171;28;20046;-68
2023/05/26 01:09:50;;;;;;;28.88;6.15;;;;;;;11.06;100.00;101927.44;4971802;28;20070;-69
2023/05/26 01:12:26;;;;;;;34.90;7.00;;;;;;;11.00;100.00;101928.84;4972130;28;20046;-71
2023/05/26 01:14:57;;;;;;;27.83;6.25;;;;;;;10.97;100.00;101921.91;4972056;28;20050;-69
2023/05/26 01:17:30;;;;;;;27.75;6.35;;;;;;;11.02;100.00;101920.66;4972097;28;20109;-69
2023/05/26 01:20:09;;;;;;;33.05;6.63;;;;;;;10.93;100.00;101923.16;4972209;28;20046;-69
2023/05/26 01:22:50;;;;;;;31.90;7.18;;;;;;;10.95;100.00;101925.69;4970925;28;20035;-69
2023/05/26 01:25:25;;;;;;;32.95;7.05;;;;;;;10.93;100.00;101920.47;4971400;28;20065;-69
2023/05/26 01:28:14;;;;;;;36.33;7.32;;;;;;;10.93;100.00;101919.63;4971251;28;20047;-69
2023/05/26 01:30:43;;;;;;;34.33;6.93;;;;;;;10.85;100.00;101920.28;4933159;29;20063;-70
2023/05/26 01:33:09;;;;;;;34.67;7.47;;;;;;;10.85;100.00;101922.94;4932718;29;20071;-70
2023/05/26 01:35:36;;;;;;;29.70;7.32;;;;;;;10.84;100.00;101929.31;4932678;29;20525;-71
2023/05/26 01:38:04;;;;;;;29.20;6.38;;;;;;;10.79;100.00;101926.19;4932999;29;20087;-68
2023/05/26 01:40:31;;;;;;;31.30;7.00;;;;;;;10.75;100.00;101924.72;4932850;29;20051;-69
2023/05/26 01:43:07;;;;;;;32.63;7.22;;;;;;;10.68;100.00;101926.25;4932608;29;20043;-70
2023/05/26 01:45:54;;;;;;;28.83;7.53;;;;;;;10.60;100.00;101929.59;4932228;29;20043;-69
2023/05/26 01:48:22;;;;;;;24.48;7.05;;;;;;;10.59;100.00;101927.06;4951682;28;20047;-69
2023/05/26 01:50:55;;;;;;;23.85;7.07;;;;;;;10.52;100.00;101932.09;4934558;29;20047;-69
2023/05/26 01:53:26;;;;;;;24.48;7.00;;;;;;;10.48;100.00;101928.78;4951656;28;20063;-70
2023/05/26 01:55:57;;;;;;;28.65;6.75;;;;;;;10.44;100.00;101937.19;4951550;28;20047;-69
2023/05/26 01:58:25;;;;;;;29.50;7.07;;;;;;;10.34;100.00;101926.41;4955226;28;20122;-70
2023/05/26 02:00:54;;;;;;;28.65;7.05;;;;;;;10.36;100.00;101924.44;4955095;28;20050;-69
2023/05/26 02:03:21;;;;;;;29.65;6.95;;;;;;;10.30;100.00;101927.63;4954969;28;20055;-70
2023/05/26 02:05:48;;;;;;;26.20;6.43;;;;;;;10.24;100.00;101930.84;4954920;29;20067;-69
2023/05/26 02:08:14;;;;;;;26.90;6.43;;;;;;;10.22;100.00;101922.91;4954894;28;20466;-70
2023/05/26 02:10:41;;;;;;;25.48;7.35;;;;;;;10.18;100.00;101926.00;4954666;28;20074;-70
2023/05/26 02:13:07;;;;;;;25.70;6.47;;;;;;;10.14;100.00;101930.75;4954852;28;20566;-69
2023/05/26 02:15:34;;;;;;;23.20;6.75;;;;;;;10.09;100.00;101934.78;4955137;29;20043;-69
2023/05/26 02:18:02;;;;;;;27.15;7.00;;;;;;;10.09;100.00;101938.31;4951006;29;20043;-69
2023/05/26 02:20:30;;;;;;;32.83;7.15;;;;;;;10.03;100.00;101942.38;4954451;29;20066;-69
2023/05/26 02:22:57;;;;;;;24.47;7.10;;;;;;;10.03;100.00;101949.56;4917547;28;1100108;-69
2023/05/26 02:25:23;;;;;;;24.80;6.90;;;;;;;9.97;100.00;101942.88;4954758;29;20287;-70
2023/05/26 02:27:50;;;;;;;24.95;6.93;;;;;;;9.91;100.00;101942.53;4955645;29;20043;-69
2023/05/26 02:30:16;;;;;;;34.25;6.85;;;;;;;9.82;100.00;101945.94;4968558;28;20050;-69
2023/05/26 02:32:43;;;;;;;24.48;7.13;;;;;;;9.80;100.00;101946.09;4975029;28;20557;-70
2023/05/26 02:35:10;;;;;;;18.05;6.93;;;;;;;9.82;100.00;101952.19;4975015;28;20050;-69
2023/05/26 02:37:36;;;;;;;34.17;7.80;;;;;;;9.77;100.00;101951.69;4975082;28;20051;-69
2023/05/26 02:40:04;;;;;;;32.67;7.35;;;;;;;9.73;100.00;101947.56;4975365;28;20051;-68
2023/05/26 02:42:31;;;;;;;25.42;7.63;;;;;;;9.70;100.00;101954.03;4955901;28;20102;-69
2023/05/26 02:44:57;;;;;;;24.52;6.50;;;;;;;9.67;100.00;101953.41;4955786;28;20098;-69
2023/05/26 02:47:24;;;;;;;23.92;6.85;;;;;;;9.70;100.00;101955.84;4955714;28;20055;-69
2023/05/26 02:49:51;;;;;;;33.95;7.45;;;;;;;9.63;100.00;101950.13;4955511;28;20047;-69
2023/05/26 02:52:17;;;;;;;28.98;7.00;;;;;;;9.59;100.00;101955.88;4955567;28;20051;-69
2023/05/26 02:54:44;;;;;;;27.40;7.40;;;;;;;9.59;100.00;101947.84;4955322;28;20558;-69
2023/05/26 02:57:10;;;;;;;24.25;6.65;;;;;;;9.56;100.00;101955.13;4955363;28;20192;-69
2023/05/26 02:59:37;;;;;;;29.73;7.20;;;;;;;9.57;100.00;101951.47;4955152;28;20051;-69
2023/05/26 03:02:03;;;;;;;25.05;7.05;;;;;;;9.57;100.00;101959.50;4955695;28;20122;-69
2023/05/26 03:04:30;;;;;;;30.27;8.35;;;;;;;9.53;100.00;101957.22;4974787;28;20065;-69
2023/05/26 03:06:56;;;;;;;30.85;7.28;;;;;;;9.46;100.00;101956.00;4974393;28;20043;-69
2023/05/26 03:09:23;;;;;;;33.53;8.25;;;;;;;9.48;100.00;101960.28;4974768;28;20050;-69
2023/05/26 03:11:49;;;;;;;22.80;6.65;;;;;;;9.39;100.00;101963.66;4974308;28;20126;-69
2023/05/26 03:14:16;;;;;;;33.53;9.38;;;;;;;9.40;100.00;101965.38;4974295;28;20097;-68
2023/05/26 03:16:43;;;;;;;33.95;10.35;;;;;;;9.36;100.00;101968.41;4973453;28;20046;-69
2023/05/26 03:19:10;;;;;;;27.17;7.53;;;;;;;9.35;100.00;101958.69;4974024;28;20463;-69
2023/05/26 03:21:36;;;;;;;30.20;7.38;;;;;;;9.30;100.00;101964.38;4973543;28;20051;-69
2023/05/26 03:24:15;;;;;;;25.38;7.18;;;;;;;9.27;100.00;101964.66;4974140;28;20069;-69
2023/05/26 03:26:42;;;;;;;27.77;7.03;;;;;;;9.29;100.00;101968.91;4974097;28;20057;-69
2023/05/26 03:29:09;;;;;;;32.42;7.95;;;;;;;9.28;100.00;101964.53;4956598;28;20051;-69
2023/05/26 03:31:35;;;;;;;22.23;6.65;;;;;;;9.33;100.00;101972.19;4954518;29;20472;-70
2023/05/26 03:34:02;;;;;;;30.55;6.63;;;;;;;9.26;100.00;101971.81;4955376;29;20062;-69
2023/05/26 03:36:28;;;;;;;33.25;8.73;;;;;;;9.25;100.00;101974.63;4954335;29;20051;-69
2023/05/26 03:38:55;;;;;;;28.58;6.70;;;;;;;9.20;100.00;101977.66;4954609;29;20050;-70
2023/05/26 03:41:22;;;;;;;29.88;7.07;;;;;;;9.22;100.00;101980.19;4954835;29;20083;-69
2023/05/26 03:43:48;;;;;;;34.08;8.90;;;;;;;9.23;100.00;101984.56;4954522;29;20049;-70
2023/05/26 03:46:15;;;;;;;27.75;7.15;;;;;;;9.29;100.00;101981.44;4954940;29;20443;-70
2023/05/26 03:48:41;;;;;;;24.20;7.60;;;;;;;9.28;100.00;101985.09;4954573;29;20086;-69
2023/05/26 03:51:08;;;;;;;30.95;7.85;;;;;;;9.24;100.00;101983.66;4954652;29;20416;-70
2023/05/26 03:53:35;;;;;;;24.42;6.78;;;;;;;9.24;100.00;101979.13;4954707;29;20079;-70
2023/05/26 03:56:01;;;;;;;30.25;7.18;;;;;;;9.25;100.00;101982.66;4950883;29;20464;-69
2023/05/26 03:58:28;;;;;;;28.73;8.02;;;;;;;9.22;100.00;101981.03;4954398;29;20051;-70
2023/05/26 04:00:55;;;;;;;32.63;7.95;;;;;;;9.21;100.00;101975.81;4954297;29;20051;-69
2023/05/26 04:03:22;;;;;;;27.80;7.65;;;;;;;9.23;100.00;101987.25;4954119;29;20098;-70
2023/05/26 04:05:50;;;;;;;24.10;7.00;;;;;;;9.21;100.00;101989.19;4954106;29;20130;-70
2023/05/26 04:08:17;;;;;;;29.58;6.95;;;;;;;9.28;100.00;101998.50;4954258;29;20047;-70
2023/05/26 04:10:43;;;;;;;25.13;6.65;;;;;;;9.30;100.00;101999.22;4953996;29;20047;-70
2023/05/26 04:13:13;;;;;;;30.80;8.15;;;;;;;9.31;100.00;102001.78;4953900;29;20141;-69
2023/05/26 04:15:40;;;;;;;29.95;7.35;;;;;;;9.36;100.00;102000.56;4953810;29;20051;-69
2023/05/26 04:18:07;;;;;;;28.88;7.38;;;;;;;9.32;100.00;102003.47;4954087;29;20047;-70
2023/05/26 04:20:33;;;;;;;30.13;7.38;;;;;;;9.30;100.00;102004.56;4953502;28;20114;-70
2023/05/26 04:23:00;;;;;;;24.77;7.63;;;;;;;9.32;100.00;102002.63;4970987;28;20043;-69
2023/05/26 04:25:27;;;;;;;27.23;7.47;;;;;;;9.32;100.00;101998.13;4973266;28;20043;-70
2023/05/26 04:27:57;;;;;;;24.23;7.10;;;;;;;9.36;100.00;102003.25;4972949;28;20050;-69
2023/05/26 04:30:24;;;;;;;26.77;6.70;;;;;;;9.40;100.00;102004.69;4972909;28;20480;-70
2023/05/26 04:32:53;;;;;;;26.77;7.43;;;;;;;9.46;100.00;102010.41;4973036;28;20050;-70
2023/05/26 04:35:20;;;;;;;29.92;7.78;;;;;;;9.49;100.00;102010.19;4972729;28;20047;-70
2023/05/26 04:37:48;;;;;;;34.88;7.55;;;;;;;9.55;100.00;102015.06;4972792;28;20558;-70
2023/05/26 04:40:15;;;;;;;30.23;7.85;;;;;;;9.56;100.00;102013.22;4972939;28;20047;-70
2023/05/26 04:42:43;;;;;;;37.00;7.35;;;;;;;9.61;100.00;102012.84;4972850;28;20126;-70
2023/05/26 04:45:10;;;;;;;38.58;8.13;;;;;;;9.66;100.00;102021.41;4972950;28;20510;-69
2023/05/26 04:47:40;;;;;;;38.33;8.68;;;;;;;9.68;100.00;102020.31;4955817;28;20050;-69
2023/05/26 04:50:07;;;;;;;36.55;8.43;;;;;;;9.72;100.00;102015.56;4955509;28;20050;-69
2023/05/26 04:52:33;;;;;;;43.58;8.60;;;;;;;9.73;100.00;102011.88;4973210;28;20589;-69
2023/05/26 04:55:00;;;;;;;35.45;8.07;;;;;;;9.83;100.00;102012.84;4972374;28;20054;-69
2023/05/26 04:57:26;;;;;;;29.05;7.28;;;;;;;9.95;100.00;102016.34;4972161;28;20403;-69
2023/05/26 04:59:53;;;;;;;43.20;7.68;;;;;;;9.94;100.00;102009.31;4972513;28;20126;-69
2023/05/26 05:02:19;;;;;;;44.35;7.85;;;;;;;9.93;100.00;102012.97;4955090;28;20499;-69
2023/05/26 05:04:46;;;;;;;40.40;7.65;;;;;;;9.91;100.00;102010.41;4972084;28;20485;-69
2023/05/26 05:07:13;;;;;;;30.70;7.03;;;;;;;10.01;100.00;102007.81;4972248;28;20074;-70
2023/05/26 05:09:39;;;;;;;36.30;7.80;;;;;;;10.08;100.00;102010.84;4972454;28;20074;-70
2023/05/26 05:12:06;;;;;;;29.98;7.47;;;;;;;10.05;100.00;102014.63;4972221;28;20047;-70
2023/05/26 05:14:32;;;;;;;35.08;7.13;;;;;;;10.09;100.00;102009.88;4972460;28;20451;-69
2023/05/26 05:16:59;;;;;;;29.90;6.75;;;;;;;10.16;100.00;102016.44;4972090;28;20043;-70
2023/05/26 05:19:26;;;;;;;34.47;7.95;;;;;;;10.19;100.00;102011.66;4971674;28;20458;-70
2023/05/26 05:21:53;;;;;;;36.25;7.40;;;;;;;10.22;100.00;102010.56;4971780;28;20102;-70
2023/05/26 05:24:20;;;;;;;30.70;7.18;;;;;;;10.39;100.00;102012.72;4972109;28;20055;-69
2023/05/26 05:26:46;;;;;;;35.63;6.78;;;;;;;10.37;100.00;102011.97;4971940;28;20076;-69
2023/05/26 05:29:13;;;;;;;33.22;7.32;;;;;;;10.49;100.00;102019.00;4967284;28;20071;-69
2023/05/26 05:31:39;;;;;;;36.80;7.55;;;;;;;10.46;100.00;102015.72;4952412;28;20492;-70
2023/05/26 05:34:06;;;;;;;38.13;7.22;;;;;;;10.43;100.00;102018.66;4952690;29;20043;-70
2023/05/26 05:36:33;;;;;;;32.97;6.93;;;;;;;10.55;100.00;102019.50;4952677;28;20066;-69
2023/05/26 05:38:59;;;;;;;36.17;6.82;;;;;;;10.61;100.00;102027.88;4952330;28;20043;-68
2023/05/26 05:41:26;;;;;;;33.60;6.95;;;;;;;10.57;100.00;102025.59;4952371;29;20054;-70
2023/05/26 05:43:56;;;;;;;40.50;7.68;;;;;;;10.69;100.00;102029.94;4952213;28;20043;-70
2023/05/26 05:46:26;;;;;;;37.42;7.40;;;;;;;10.64;100.00;102035.69;4952048;28;20100;-70
2023/05/26 05:48:53;;;;;;;34.78;6.97;;;;;;;10.80;100.00;102037.94;4952231;29;20400;-70
2023/05/26 05:51:19;;;;;;;40.00;7.50;;;;;;;10.87;100.00;102040.97;4952457;28;20051;-69
2023/05/26 05:53:46;;;;;;;35.55;7.07;;;;;;;10.83;100.00;102043.06;4952020;28;20050;-69
2023/05/26 05:56:12;;;;;;;41.42;7.60;;;;;;;10.92;100.00;102044.94;4952232;28;20575;-69
2023/05/26 05:58:39;;;;;;;29.75;7.07;;;;;;;11.01;100.00;102050.53;4951772;29;20047;-70
2023/05/26 06:01:06;;;;;;;38.67;7.85;;;;;;;10.95;100.00;102046.53;4952748;28;20415;-69
2023/05/26 06:03:33;;;;;;;37.38;7.00;;;;;;;11.06;100.00;102048.28;4931562;29;20047;-70
2023/05/26 06:06:00;;;;;;;32.88;7.70;;;;;;;11.17;100.00;102042.84;4952167;28;20040;-69
2023/05/26 06:08:26;;;;;;;45.88;7.55;;;;;;;11.28;100.00;102037.44;4952178;28;20059;-70
2023/05/26 06:10:53;;;;;;;40.63;8.40;;;;;;;11.34;100.00;102039.56;4951902;28;20562;-69
2023/05/26 06:13:19;;;;;;;37.97;8.02;;;;;;;11.38;100.00;102049.06;4951925;29;20051;-70
2023/05/26 06:15:46;;;;;;;37.13;8.73;;;;;;;11.50;100.00;102044.47;4952077;29;20051;-70
2023/05/26 06:18:12;;;;;;;36.75;7.50;;;;;;;11.53;100.00;102054.09;4951980;29;20562;-70
2023/05/26 06:20:39;;;;;;;39.25;7.68;;;;;;;11.51;100.00;102048.00;4951870;28;20608;-70
2023/05/26 06:23:06;;;;;;;33.55;7.32;;;;;;;11.50;100.00;102047.16;4952223;28;20059;-71
2023/05/26 06:25:33;;;;;;;31.48;6.90;;;;;;;11.36;100.00;102053.72;4952574;28;20047;-70
2023/05/26 06:27:59;;;;;;;38.50;7.07;;;;;;;11.51;100.00;102048.00;4952171;29;20167;-70
2023/05/26 06:30:26;;;;;;;38.90;6.93;;;;;;;11.65;100.00;102053.00;4966150;28;20054;-70
2023/05/26 06:32:52;;;;;;;30.10;6.72;;;;;;;11.80;100.00;102059.78;4971215;28;20074;-68
2023/05/26 06:35:19;;;;;;;31.95;7.05;;;;;;;11.89;100.00;102058.94;4971388;28;20503;-70
2023/05/26 06:37:46;;;;;;;33.83;7.22;;;;;;;11.96;100.00;102063.78;4971316;28;20106;-71
2023/05/26 06:40:12;;;;;;;32.17;6.55;;;;;;;12.09;100.00;102059.84;4971528;28;20109;-70
2023/05/26 06:42:39;;;;;;;39.33;6.95;;;;;;;12.06;100.00;102053.91;4971795;28;20070;-69
2023/05/26 06:45:06;;;;;;;36.17;7.00;;;;;;;12.04;100.00;102053.19;4975260;28;20051;-69
2023/05/26 06:47:32;;;;;;;37.42;7.00;;;;;;;12.03;100.00;102054.16;4974913;28;20101;-69
2023/05/26 06:49:59;;;;;;;30.90;7.53;;;;;;;12.19;100.00;102059.03;4974657;28;20081;-70
2023/05/26 06:52:27;;;;;;;37.17;7.05;;;;;;;12.28;100.00;102059.06;4974762;28;20105;-69
2023/05/26 06:54:54;;;;;;;38.30;7.63;;;;;;;12.47;100.00;102062.75;4974473;28;20063;-69
2023/05/26 06:57:20;;;;;;;39.08;7.57;;;;;;;12.62;100.00;102064.03;4974289;28;20133;-69
2023/05/26 06:59:46;;;;;;;36.40;7.60;;;;;;;12.68;99.09;102058.09;4974579;28;20553;-69
2023/05/26 07:02:13;;;;;;;36.17;6.60;;;;;;;12.99;97.91;102056.13;4974429;28;20175;-69
2023/05/26 07:04:41;;;;;;;24.45;6.95;;;;;;;12.92;95.95;102048.78;4974270;28;20478;-70
2023/05/26 07:07:08;;;;;;;30.38;7.10;;;;;;;12.79;96.02;102057.97;4974018;28;20051;-70
2023/05/26 07:09:35;;;;;;;33.70;7.55;;;;;;;12.97;96.72;102054.56;4974647;28;20411;-70
2023/05/26 07:12:01;;;;;;;30.65;7.35;;;;;;;13.44;92.31;102066.25;4970470;28;20089;-70
2023/05/26 07:14:28;;;;;;;36.42;7.25;;;;;;;13.76;86.70;102063.19;4974240;28;20093;-71
2023/05/26 07:16:54;;;;;;;29.98;6.68;;;;;;;13.78;80.70;102063.06;4974318;28;20047;-70
2023/05/26 07:19:21;;;;;;;38.95;7.10;;;;;;;14.13;78.45;102061.44;4974352;28;20046;-70
2023/05/26 07:21:48;;;;;;;27.98;6.72;;;;;;;14.49;74.68;102056.94;4973879;28;20046;-70
2023/05/26 07:24:14;;;;;;;30.25;7.15;;;;;;;14.60;72.38;102061.25;4974461;28;20113;-71
2023/05/26 07:26:41;;;;;;;32.08;6.65;;;;;;;15.16;71.54;102063.66;4974193;28;20050;-70
2023/05/26 07:29:07;;;;;;;34.28;7.43;;;;;;;15.43;69.53;102061.78;4970139;28;20075;-71
2023/05/26 07:31:34;;;;;;;29.48;6.40;;;;;;;15.70;65.47;102053.50;4955015;29;20043;-70
2023/05/26 07:34:00;;;;;;;34.95;6.47;;;;;;;16.21;63.99;102061.66;4954637;29;20134;-70
2023/05/26 07:36:27;;;;;;;29.80;6.32;;;;;;;16.56;61.26;102062.44;4954737;28;20043;-71
2023/05/26 07:38:54;;;;;;;26.02;5.75;;;;;;;17.06;57.61;102058.72;4954552;28;20106;-71
2023/05/26 07:41:21;;;;;;;27.05;5.88;;;;;;;17.11;55.10;102059.91;4954710;29;20090;-70
2023/05/26 07:43:48;;;;;;;37.88;6.85;;;;;;;17.06;55.25;102067.72;4954584;28;20384;-70
2023/05/26 07:46:14;;;;;;;25.60;6.25;;;;;;;17.34;54.86;102065.53;4954645;28;20456;-70
2023/05/26 07:48:41;;;;;;;30.25;6.20;;;;;;;17.60;54.72;102065.28;4954499;28;20054;-70
2023/05/26 07:51:07;;;;;;;30.50;7.15;;;;;;;17.81;53.77;102064.69;4953935;28;20500;-71
2023/05/26 07:53:35;;;;;;;28.58;6.60;;;;;;;17.95;53.19;102070.41;4954110;28;20052;-71
2023/05/26 07:56:01;;;;;;;32.67;7.00;;;;;;;18.09;52.40;102073.22;4953645;28;20053;-71
2023/05/26 07:58:28;;;;;;;28.15;6.10;;;;;;;18.26;52.00;102065.88;4953904;28;20126;-69
2023/05/26 08:00:54;;;;;;;25.50;6.13;;;;;;;18.89;50.09;102063.06;4953986;28;20046;-70
2023/05/26 08:03:21;;;;;;;30.38;6.85;;;;;;;19.00;48.68;102071.66;4953009;28;20106;-70
2023/05/26 08:05:48;;;;;;;29.20;6.43;;;;;;;19.01;48.90;102076.06;4953920;28;20074;-70
2023/05/26 08:08:15;;;;;;;27.50;7.25;;;;;;;19.64;47.15;102071.19;4954100;29;20047;-70
2023/05/26 08:10:42;;;;;;;21.58;6.30;;;;;;;19.76;46.53;102073.44;4954023;28;20054;-70
2023/05/26 08:13:09;;;;;;;29.75;6.93;;;;;;;19.67;46.79;102064.53;4954142;28;20066;-70
2023/05/26 08:15:35;;;;;;;33.03;7.15;;;;;;;19.53;46.75;102068.94;4954102;29;20420;-70
2023/05/26 08:18:02;;;;;;;25.10;6.95;;;;;;;19.98;45.91;102060.78;4953850;28;20129;-70
2023/05/26 08:20:28;;;;;;;26.02;5.82;;;;;;;20.34;45.30;102061.63;4954102;28;20150;-70
2023/05/26 08:22:58;;;;;;;30.25;6.60;;;;;;;20.50;45.09;102051.56;4952207;28;20052;-70
2023/05/26 08:25:25;;;;;;;33.33;7.43;;;;;;;20.24;45.31;102050.19;4953074;28;20162;-69
2023/05/26 08:27:52;;;;;;;20.67;6.63;;;;;;;19.93;44.40;102059.47;4952416;28;20462;-69
2023/05/26 08:30:19;;;;;;;29.88;6.35;;;;;;;19.95;44.82;102062.00;4966675;28;20494;-70
2023/05/26 08:32:45;;;;;;;25.05;6.80;;;;;;;20.20;45.24;102059.78;4972891;28;20175;-70
2023/05/26 08:35:12;;;;;;;26.67;6.63;;;;;;;20.67;44.20;102050.25;4972793;28;20070;-71
2023/05/26 08:37:38;;;;;;;21.17;5.82;;;;;;;21.24;42.45;102051.16;4973257;28;20102;-70
2023/05/26 08:40:06;;;;;;;22.90;5.93;;;;;;;21.43;42.36;102044.19;4961167;28;20043;-69
2023/05/26 08:42:43;;;;;;;27.00;7.15;;;;;;;21.89;41.93;102046.34;4972861;28;20057;-70
2023/05/26 08:45:11;;;;;;;20.10;6.18;;;;;;;22.19;40.81;102046.88;4973078;28;20159;-70
2023/05/26 08:47:40;;;;;;;29.60;6.50;;;;;;;21.57;40.50;102051.41;4972890;28;20070;-69
2023/05/26 08:50:08;;;;;;;29.65;7.00;;;;;;;21.66;40.97;102050.16;4972623;28;20053;-69
2023/05/26 08:52:37;;;;;;;31.70;6.55;;;;;;;21.40;41.41;102050.03;4971780;28;20047;-68
2023/05/26 08:55:05;;;;;;;33.50;7.03;;;;;;;21.82;38.15;102049.88;4972535;28;20070;-70
2023/05/26 08:57:32;;;;;;;19.58;5.60;;;;;;;22.03;37.76;102048.91;4972426;28;20447;-70
2023/05/26 08:59:59;;;;;;;29.17;6.63;;;;;;;22.09;38.88;102047.25;4972404;28;20046;-71
2023/05/26 09:02:26;;;;;;;26.73;6.47;;;;;;;22.55;36.45;102052.03;4971627;28;20476;-69
2023/05/26 09:04:53;;;;;;;23.50;5.88;;;;;;;22.39;37.00;102052.38;4972086;28;20050;-70
2023/05/26 09:07:20;;;;;;;25.10;6.68;;;;;;;22.38;38.10;102047.97;4971670;28;20105;-71
2023/05/26 09:09:53;;;;;;;20.23;6.22;;;;;;;22.76;37.13;102040.03;4972138;28;20046;-71
2023/05/26 09:12:19;;;;;;;17.85;6.10;;;;;;;24.11;35.34;102035.78;4971806;28;20570;-70
2023/05/26 09:14:46;;;;;;;27.75;6.70;;;;;;;23.25;36.64;102042.34;4972048;28;20077;-70
2023/05/26 09:17:13;;;;;;;23.73;6.35;;;;;;;23.51;36.48;102035.16;4972378;28;20046;-70
2023/05/26 09:19:40;;;;;;;25.98;6.15;;;;;;;23.44;35.66;102037.09;4972179;28;20099;-71
2023/05/26 09:22:10;;;;;;;20.95;6.07;;;;;;;23.87;34.99;102034.63;4971259;28;20452;-71
2023/05/26 09:24:47;;;;;;;20.73;6.45;;;;;;;24.00;34.72;102035.66;4971790;28;20411;-71
2023/05/26 09:27:19;;;;;;;21.30;5.97;;;;;;;25.00;33.09;102031.22;4968492;28;20130;-71
2023/05/26 09:29:50;;;;;;;;;;;;;;;25.09;32.72;102038.06;4963250;28;20062;-71
2023/05/26 09:32:16;;;;;;;22.38;6.22;;;;;;;24.81;33.36;102032.19;4953180;28;19934;-71
2023/05/26 09:34:43;;;;;;;26.40;6.40;;;;;;;24.94;33.30;102032.06;4952821;28;20648;-71
2023/05/26 09:37:10;;;;;;;17.90;6.10;;;;;;;24.81;33.08;102041.25;4953153;28;20110;-71
2023/05/26 09:39:37;;;;;;;20.23;6.35;;;;;;;24.33;32.37;102040.94;4952922;28;20063;-71
2023/05/26 09:42:08;;;;;;;21.98;6.18;;;;;;;24.75;32.02;102035.81;4953292;28;20051;-71
2023/05/26 09:44:35;;;;;;;20.27;5.90;;;;;;;24.61;31.91;102035.94;4951691;28;20176;-71
2023/05/26 09:47:02;;;;;;;20.77;6.20;;;;;;;25.24;30.66;102031.41;4953125;28;20043;-70
2023/05/26 09:49:31;;;;;;;24.10;6.35;;;;;;;25.10;30.89;102026.03;4952012;28;20511;-71
2023/05/26 09:51:58;;;;;;;21.17;5.72;;;;;;;25.66;30.62;102029.69;4952759;28;20456;-71
2023/05/26 09:54:39;;;;;;;18.50;5.53;;;;;;;25.51;30.05;102027.31;4952696;28;20126;-71
2023/05/26 09:57:12;;;;;;;27.45;5.88;;;;;;;25.73;29.80;102024.13;4951564;28;20054;-71
2023/05/26 09:59:43;;;;;;;16.30;5.10;;;;;;;25.17;29.78;102022.41;4952575;28;20043;-72
2023/05/26 10:02:22;;;;;;;21.10;5.20;;;;;;;25.43;29.31;102027.59;4953035;28;20082;-71
2023/05/26 10:04:50;;;;;;;18.60;5.80;;;;;;;25.80;28.80;102025.72;4952330;28;20047;-71
2023/05/26 10:07:21;;;;;;;23.67;6.53;;;;;;;25.73;28.96;102029.63;4949963;28;20415;-71
2023/05/26 10:09:52;;;;;;;21.13;5.15;;;;;;;26.56;26.96;102015.97;4952039;28;20538;-71
2023/05/26 10:12:27;;;;;;;19.52;4.97;;;;;;;26.96;25.54;102020.81;4952135;28;20500;-70
2023/05/26 10:14:53;;;;;;;19.38;5.78;;;;;;;26.44;26.99;102003.25;4952605;28;20059;-70
2023/05/26 10:17:25;;;;;;;20.77;5.30;;;;;;;26.32;27.63;102015.06;4951806;28;20055;-71
2023/05/26 10:19:55;;;;;;;19.85;5.60;;;;;;;26.09;27.67;102004.78;4956620;28;20504;-71
2023/05/26 10:22:39;;;;;;;24.10;5.78;;;;;;;26.21;28.30;102012.31;4954327;28;20061;-71
2023/05/26 10:25:31;;;;;;;19.45;5.63;;;;;;;25.71;28.50;102010.59;4955706;28;20452;-70
2023/05/26 10:28:08;;;;;;;16.48;5.53;;;;;;;25.74;28.72;102012.88;4955675;28;20477;-69
2023/05/26 10:30:38;;;;;;;19.95;6.18;;;;;;;25.63;28.54;102007.34;4971258;28;20054;-70
2023/05/26 10:33:17;;;;;;;22.20;5.70;;;;;;;25.52;28.20;102015.25;4974316;28;20046;-70
2023/05/26 10:35:59;;;;;;;21.50;5.80;;;;;;;25.41;27.98;102010.53;4974574;28;20487;-70
2023/05/26 10:38:27;;;;;;;16.33;5.32;;;;;;;24.79;29.42;102017.84;4974543;28;20077;-70
2023/05/26 10:40:53;;;;;;;23.40;6.10;;;;;;;24.69;29.08;102012.88;4975228;28;20046;-70
2023/05/26 10:43:23;;;;;;;21.58;6.35;;;;;;;24.13;30.10;102017.22;4974060;28;20051;-71
2023/05/26 10:46:00;;;;;;;16.75;5.20;;;;;;;24.60;29.18;102008.69;4973659;28;20098;-70
2023/05/26 10:48:37;;;;;;;23.60;6.22;;;;;;;24.04;30.37;102004.81;4974994;28;20408;-71
2023/05/26 10:51:06;;;;;;;19.48;5.45;;;;;;;24.06;29.83;102016.44;4974790;28;20053;-70
2023/05/26 10:53:39;;;;;;;19.92;5.72;;;;;;;23.00;29.73;102019.41;4974768;28;20395;-70
2023/05/26 10:56:08;;;;;;;20.98;5.75;;;;;;;23.23;29.59;102013.53;4975257;28;20494;-71
2023/05/26 10:58:37;;;;;;;20.98;4.78;;;;;;;23.19;27.62;102010.38;4942413;28;20047;-70
2023/05/26 11:01:06;;;;;;;14.45;4.82;;;;;;;23.09;27.72;102009.06;4955359;29;20055;-70
2023/05/26 11:03:41;;;;;;;19.08;5.10;;;;;;;22.26;28.50;102010.28;4955143;29;20552;-70
2023/05/26 11:06:14;;;;;;;25.27;5.15;;;;;;;22.13;29.26;102010.25;4967393;28;20097;-69
2023/05/26 11:08:48;;;;;;;24.90;5.38;;;;;;;21.97;29.91;102018.81;4974777;28;20050;-69
2023/05/26 11:11:27;;;;;;;18.42;4.97;;;;;;;21.37;30.53;102019.34;4974600;28;20101;-69
2023/05/26 11:14:12;;;;;;;14.00;4.50;;;;;;;21.18;30.98;102003.66;4974672;28;20113;-69
2023/05/26 11:16:42;;;;;;;23.75;5.05;;;;;;;20.98;31.02;102016.31;4974710;28;20101;-69
2023/05/26 11:19:12;;;;;;;18.50;5.05;;;;;;;20.86;31.09;102018.72;4974379;28;20140;-69